Main page
METAR-TAF:

METAR-TAF

Airports :

Beijing, China

Beijing Capital International Airport

latitude: 39-56N, longitude: 116-17E, elevation: 55 m

Current weather observation

The report was made 27 minutes ago, at 14:00 UTC
Wind 2 kt from variable directions
Temperature -5°C
Humidity 63%
Pressure 1024 hPa
Visibility 10 km or more
no clouds below 1500 m and no cumulonimbus

METAR: ZBAA 211400Z VRB01MPS CAVOK M05/M11 Q1024 NOSIG

Time: 22:27 (14:27 UTC)

Forecast

The report was made 4 hours and 57 minutes ago, at 09:30 UTC
Forecast valid from 21 at 12 UTC to 22 at 12 UTC
Wind 8 kt from the East/Southeast
Visibility: 6000 m
Becoming
from 21 at 13 UTC to 21 at 14 UTC
Visibility: 2700 m
light snow, mist
Becoming
from 22 at 01 UTC to 22 at 02 UTC
Visibility: 5000 m
mist

TAF: ZBAA 210930Z 2112/2212 12004MPS 6000 NSC TXM02/06Z TNM07/23Z BECMG 2113/2114 2700 -SN BR BECMG 2201/2202 5000 BR

Weather observations and forecasts of more than 4000 airports (METAR and TAF reports).

The available stations are represented by yellow and red dots on the map.

Hover mouse over dot to see the name of the station.

Then click to see weather observations and forecasts.

To change the map : click on the green buttons with a black cross to zoom in, on the green button with a dash to zoom out, or on the green arrows for adjacent maps.


METAR-TAF: